Time;durP1;ratioP1;P1;durP2;ratioP2;P2;SDS_P1;SDS_P2;PMS_P1;PMS_P2;Temp;Humidity;BMP_temperature;BMP_pressure;BME280_temperature;BME280_humidity;BME280_pressure;Samples;Min_cycle;Max_cycle;Signal;HPM_P1;HPM_P2
2021/08/23 00:00:58;;;;;;;16.20;11.70;;;;;;;14.10;85.21;100910.42;1698581;82;21800;-66
2021/08/23 00:03:25;;;;;;;13.70;10.90;;;;;;;14.08;85.25;100907.99;1671324;83;21768;-66
2021/08/23 00:05:51;;;;;;;12.60;10.77;;;;;;;14.06;85.33;100911.50;1668727;83;21377;-66
2021/08/23 00:08:19;;;;;;;13.20;11.10;;;;;;;14.04;85.41;100910.42;1676534;83;21354;-66
2021/08/23 00:10:46;;;;;;;13.40;10.57;;;;;;;14.03;85.47;100912.05;1667190;83;21391;-66
2021/08/23 00:13:12;;;;;;;12.37;10.70;;;;;;;14.02;85.51;100914.47;1675269;84;21770;-66
2021/08/23 00:15:40;;;;;;;13.67;10.60;;;;;;;14.01;85.60;100910.95;1675220;85;21292;-66
2021/08/23 00:18:08;;;;;;;13.23;10.80;;;;;;;14.01;85.64;100916.88;1674877;85;21382;-66
2021/08/23 00:20:50;;;;;;;13.17;10.90;;;;;;;13.99;85.63;100919.84;1673947;83;21291;-66
2021/08/23 00:23:16;;;;;;;13.33;10.37;;;;;;;13.98;85.61;100913.38;1675594;83;21264;-66
2021/08/23 00:25:43;;;;;;;14.03;11.17;;;;;;;13.95;85.59;100915.27;1654402;83;21970;-66
2021/08/23 00:28:12;;;;;;;12.97;11.03;;;;;;;13.95;85.58;100915.27;1650039;86;21358;-66
2021/08/23 00:30:41;;;;;;;13.77;10.97;;;;;;;13.91;85.56;100909.63;1673086;83;21255;-66
2021/08/23 00:33:08;;;;;;;14.17;10.20;;;;;;;13.90;85.57;100914.74;1674278;83;21324;-66
2021/08/23 00:35:35;;;;;;;14.93;10.27;;;;;;;13.88;85.58;100914.20;1670710;84;21116;-66
2021/08/23 00:38:02;;;;;;;12.60;10.20;;;;;;;13.88;85.59;100920.11;1672738;83;21320;-66
2021/08/23 00:40:28;;;;;;;13.00;10.33;;;;;;;13.87;85.63;100919.85;1682427;82;21928;-67
2021/08/23 00:42:58;;;;;;;13.60;10.20;;;;;;;13.84;85.65;100924.67;1696513;82;21838;-66
2021/08/23 00:45:25;;;;;;;14.00;10.67;;;;;;;13.81;85.68;100919.84;1676788;83;21848;-66
2021/08/23 00:47:52;;;;;;;14.87;11.10;;;;;;;13.78;85.74;100914.20;1672559;83;21815;-66
2021/08/23 00:50:19;;;;;;;15.60;10.73;;;;;;;13.76;85.80;100927.11;1672273;84;21671;-65
2021/08/23 00:52:45;;;;;;;12.83;10.30;;;;;;;13.70;85.89;100920.93;1677379;83;21312;-65
2021/08/23 00:55:12;;;;;;;14.93;11.13;;;;;;;13.67;86.01;100925.49;1667516;83;21396;-65
2021/08/23 00:57:40;;;;;;;13.93;10.80;;;;;;;13.66;86.13;100925.23;1722636;82;21443;-66
2021/08/23 01:00:09;;;;;;;14.17;10.77;;;;;;;13.64;86.24;100924.69;1729817;82;21327;-66
2021/08/23 01:02:47;;;;;;;15.27;11.07;;;;;;;13.61;86.33;100927.91;1740138;80;21157;-66
2021/08/23 01:05:21;;;;;;;17.17;11.50;;;;;;;13.60;86.38;100922.27;1730778;81;21153;-66
2021/08/23 01:08:04;;;;;;;15.60;10.43;;;;;;;13.59;86.43;100917.98;1730641;80;21965;-66
2021/08/23 01:10:42;;;;;;;17.47;10.93;;;;;;;13.55;86.51;100918.23;1715578;82;21291;-66
2021/08/23 01:13:09;;;;;;;13.20;10.33;;;;;;;13.51;86.63;100915.82;1738419;80;21321;-65
2021/08/23 01:15:36;;;;;;;15.70;10.93;;;;;;;13.48;86.74;100915.02;1727984;82;21214;-66
2021/08/23 01:18:04;;;;;;;13.63;10.73;;;;;;;13.43;86.91;100917.17;1735139;80;21791;-66
2021/08/23 01:20:37;;;;;;;15.03;11.53;;;;;;;13.40;87.05;100913.67;1719166;81;21350;-66
2021/08/23 01:23:03;;;;;;;13.33;9.67;;;;;;;13.38;87.17;100927.34;1738637;80;21359;-66
2021/08/23 01:25:33;;;;;;;13.10;10.97;;;;;;;13.33;87.23;100919.30;1752410;80;21242;-66
2021/08/23 01:28:21;;;;;;;14.13;11.38;;;;;;;13.27;87.33;100917.68;1732219;82;21368;-66
2021/08/23 01:31:08;;;;;;;13.80;9.87;;;;;;;13.24;87.41;100922.23;1740172;81;21029;-65
2021/08/23 01:33:35;;;;;;;13.87;11.03;;;;;;;13.21;87.49;100918.70;1743280;80;21378;-65
2021/08/23 01:36:01;;;;;;;12.77;9.93;;;;;;;13.20;87.59;100920.33;1721969;82;21136;-66
2021/08/23 01:38:29;;;;;;;12.83;10.50;;;;;;;13.18;87.63;100919.23;1713149;82;21833;-66
2021/08/23 01:41:06;;;;;;;13.90;10.30;;;;;;;13.13;87.73;100917.89;1737586;81;21688;-65
2021/08/23 01:43:35;;;;;;;12.03;10.50;;;;;;;13.10;87.88;100913.06;1743802;80;22419;-65
2021/08/23 01:46:02;;;;;;;12.80;10.37;;;;;;;13.09;88.10;100916.80;1730655;80;21486;-66
2021/08/23 01:48:29;;;;;;;17.27;11.50;;;;;;;13.07;88.31;100918.95;1737781;80;21324;-66
2021/08/23 01:50:56;;;;;;;14.47;11.03;;;;;;;13.06;88.41;100920.00;1736821;81;21268;-66
2021/08/23 01:53:22;;;;;;;15.10;10.73;;;;;;;13.06;88.47;100915.98;1738494;80;21258;-66
2021/08/23 01:55:50;;;;;;;14.07;10.67;;;;;;;13.07;88.56;100914.93;1732459;81;21344;-66
2021/08/23 01:58:16;;;;;;;15.03;11.23;;;;;;;13.05;88.65;100911.16;1732670;80;21269;-66
2021/08/23 02:00:43;;;;;;;13.93;10.70;;;;;;;13.06;88.76;100909.27;1718135;81;21310;-67
2021/08/23 02:03:11;;;;;;;16.03;10.07;;;;;;;13.04;88.87;100910.89;1727453;80;21243;-66
2021/08/23 02:05:39;;;;;;;15.30;11.57;;;;;;;13.00;89.02;100913.84;1729844;81;21325;-67
2021/08/23 02:08:06;;;;;;;13.83;11.30;;;;;;;12.99;89.15;100911.41;1736462;80;21306;-67
2021/08/23 02:10:34;;;;;;;16.37;11.00;;;;;;;12.98;89.28;100916.50;1728081;81;21299;-66
2021/08/23 02:13:01;;;;;;;16.13;11.60;;;;;;;12.95;89.33;100913.81;1737370;80;22045;-66
2021/08/23 02:15:27;;;;;;;15.30;12.53;;;;;;;12.94;89.37;100912.75;1734064;81;21328;-66
2021/08/23 02:17:54;;;;;;;15.53;12.30;;;;;;;12.95;89.43;100913.01;1711874;83;21101;-66
2021/08/23 02:20:21;;;;;;;16.57;12.60;;;;;;;12.95;89.47;100914.35;1745931;80;21445;-66
2021/08/23 02:22:47;;;;;;;15.07;12.80;;;;;;;12.94;89.54;100911.41;1733156;80;21960;-67
2021/08/23 02:25:19;;;;;;;18.57;13.70;;;;;;;12.94;89.50;100913.55;1744012;80;21353;-66
2021/08/23 02:27:44;;;;;;;18.37;12.77;;;;;;;12.93;89.49;100912.45;1723293;80;21854;-67
2021/08/23 02:30:12;;;;;;;17.13;12.37;;;;;;;12.92;89.46;100911.66;1728230;82;21279;-66
2021/08/23 02:32:39;;;;;;;15.10;12.13;;;;;;;12.89;89.43;100910.84;1722470;81;21327;-67
2021/08/23 02:35:08;;;;;;;14.60;11.77;;;;;;;12.86;89.45;100914.84;1742155;80;21181;-66
2021/08/23 02:37:34;;;;;;;13.57;12.10;;;;;;;12.87;89.41;100914.34;1732495;80;21255;-66
2021/08/23 02:40:01;;;;;;;16.03;12.57;;;;;;;12.84;89.33;100919.69;1734503;81;21234;-66
2021/08/23 02:42:27;;;;;;;15.10;11.90;;;;;;;12.81;89.29;100917.52;1733006;80;21424;-66
2021/08/23 02:44:54;;;;;;;14.20;11.27;;;;;;;12.80;89.26;100915.92;1739902;81;21341;-67
2021/08/23 02:47:21;;;;;;;13.97;11.00;;;;;;;12.79;89.24;100918.31;1735928;80;21893;-67
2021/08/23 02:49:48;;;;;;;12.43;11.10;;;;;;;12.80;89.21;100920.45;1736405;81;21404;-66
2021/08/23 02:52:14;;;;;;;12.90;10.90;;;;;;;12.78;89.14;100915.37;1738070;82;21300;-66
2021/08/23 02:54:41;;;;;;;12.60;11.23;;;;;;;12.77;89.10;100919.13;1740266;80;21385;-66
2021/08/23 02:57:07;;;;;;;13.17;10.40;;;;;;;12.75;89.08;100919.11;1735306;81;21298;-66
2021/08/23 02:59:34;;;;;;;12.90;11.50;;;;;;;12.70;89.04;100917.23;1728974;80;21144;-66
2021/08/23 03:02:00;;;;;;;14.90;11.57;;;;;;;12.62;89.08;100918.52;1733240;82;21349;-66
2021/08/23 03:04:27;;;;;;;15.80;12.10;;;;;;;12.59;89.16;100914.22;1738168;80;21335;-66
2021/08/23 03:06:54;;;;;;;14.30;12.07;;;;;;;12.59;89.23;100919.03;1701029;82;21377;-66
2021/08/23 03:09:21;;;;;;;13.67;12.00;;;;;;;12.60;89.26;100923.86;1696937;82;21870;-66
2021/08/23 03:11:48;;;;;;;13.93;12.30;;;;;;;12.59;89.30;100927.08;1650340;86;21871;-66
2021/08/23 03:14:14;;;;;;;14.47;12.33;;;;;;;12.59;89.34;100930.30;1671788;83;21874;-66
2021/08/23 03:16:41;;;;;;;15.97;12.63;;;;;;;12.58;89.46;100929.49;1664202;85;21177;-66
2021/08/23 03:19:07;;;;;;;15.60;13.57;;;;;;;12.59;89.61;100932.44;1660532;85;21359;-66
2021/08/23 03:21:34;;;;;;;17.33;13.40;;;;;;;12.62;89.66;100935.13;1669769;83;21304;-66
2021/08/23 03:24:01;;;;;;;15.60;13.30;;;;;;;12.66;89.71;100936.22;1676299;83;21179;-66
2021/08/23 03:26:28;;;;;;;15.40;13.30;;;;;;;12.70;89.73;100931.97;1670885;83;21655;-66
2021/08/23 03:28:54;;;;;;;16.57;13.03;;;;;;;12.73;89.76;100934.63;1684091;83;21393;-66
2021/08/23 03:31:22;;;;;;;17.77;13.83;;;;;;;12.76;89.78;100932.77;1664252;84;21291;-66
2021/08/23 03:33:49;;;;;;;16.90;12.67;;;;;;;12.80;89.78;100933.86;1674933;83;21170;-66
2021/08/23 03:36:16;;;;;;;15.10;12.57;;;;;;;12.84;89.79;100937.64;1677109;83;21298;-66
2021/08/23 03:38:47;;;;;;;13.90;12.40;;;;;;;12.88;89.80;100933.36;1685126;83;21343;-66
2021/08/23 03:41:11;;;;;;;13.17;11.33;;;;;;;12.92;89.79;100935.78;1666571;84;22080;-66
2021/08/23 03:43:38;;;;;;;15.70;12.67;;;;;;;12.98;89.77;100933.39;1660028;84;21384;-65
2021/08/23 03:46:05;;;;;;;14.03;11.73;;;;;;;13.05;89.76;100933.15;1673003;83;21282;-65
2021/08/23 03:48:31;;;;;;;13.53;11.83;;;;;;;13.10;89.72;100933.17;1677108;83;21395;-66
2021/08/23 03:50:58;;;;;;;16.20;13.37;;;;;;;13.16;89.71;100934.77;1671247;84;21875;-65
2021/08/23 03:53:26;;;;;;;17.20;13.23;;;;;;;13.22;89.71;100936.94;1677826;83;21879;-66
2021/08/23 03:55:52;;;;;;;16.20;12.83;;;;;;;13.27;89.69;100941.02;1676211;83;21690;-66
2021/08/23 03:58:19;;;;;;;13.40;12.00;;;;;;;13.33;89.67;100940.77;1682906;83;21269;-66
2021/08/23 04:00:45;;;;;;;13.63;12.23;;;;;;;13.39;89.65;100942.89;1663687;83;21329;-66
2021/08/23 04:03:12;;;;;;;14.03;12.33;;;;;;;13.43;89.69;100944.00;1665531;84;21095;-65
2021/08/23 04:05:39;;;;;;;13.70;12.13;;;;;;;13.50;89.73;100945.08;1675815;83;21875;-65
2021/08/23 04:08:06;;;;;;;15.27;12.60;;;;;;;13.57;89.80;100940.25;1670190;84;21332;-66
2021/08/23 04:10:32;;;;;;;15.10;12.10;;;;;;;13.66;89.83;100945.36;1670981;83;21332;-66
2021/08/23 04:13:00;;;;;;;15.43;12.07;;;;;;;13.75;89.76;100940.25;1673929;85;21345;-65
2021/08/23 04:15:27;;;;;;;15.80;12.17;;;;;;;13.83;89.73;100938.38;1672135;83;21334;-66
2021/08/23 04:17:55;;;;;;;16.40;13.60;;;;;;;13.91;89.73;100940.52;1693065;83;21268;-65
2021/08/23 04:20:21;;;;;;;14.93;12.77;;;;;;;14.02;89.81;100941.33;1668204;85;21306;-66
2021/08/23 04:22:48;;;;;;;15.37;13.10;;;;;;;14.13;89.88;100942.91;1672038;84;21301;-65
2021/08/23 04:25:14;;;;;;;16.57;12.60;;;;;;;14.24;89.90;100939.13;1737787;80;21706;-65
2021/08/23 04:27:41;;;;;;;14.73;12.80;;;;;;;14.37;89.90;100936.95;1739267;80;21282;-66
2021/08/23 04:30:11;;;;;;;15.40;13.30;;;;;;;14.49;89.76;100938.27;1716094;80;21304;-66
2021/08/23 04:32:39;;;;;;;17.93;13.07;;;;;;;14.62;89.45;100940.95;1726373;80;21818;-66
2021/08/23 04:35:07;;;;;;;16.97;12.73;;;;;;;14.77;89.25;100939.55;1740103;80;21437;-67
2021/08/23 04:37:33;;;;;;;15.60;12.77;;;;;;;14.91;88.76;100937.06;1741487;80;21457;-67
2021/08/23 04:40:00;;;;;;;17.07;12.63;;;;;;;15.04;88.38;100938.35;1735633;80;21377;-67
2021/08/23 04:42:28;;;;;;;18.10;14.13;;;;;;;15.30;87.00;100940.88;1737613;80;21461;-67
2021/08/23 04:44:55;;;;;;;17.87;13.00;;;;;;;15.42;86.95;100938.64;1732864;81;21462;-67
2021/08/23 04:47:21;;;;;;;15.90;11.87;;;;;;;15.42;86.95;100938.64;1736473;80;22000;-67
2021/08/23 04:49:48;;;;;;;16.30;12.87;;;;;;;15.55;86.06;100936.67;1745974;80;22259;-67
2021/08/23 04:52:15;;;;;;;16.87;12.63;;;;;;;15.80;85.46;100931.66;1734938;81;21759;-67
2021/08/23 04:54:42;;;;;;;18.03;12.97;;;;;;;15.80;85.46;100931.66;1741126;80;22233;-66
2021/08/23 04:57:08;;;;;;;14.93;10.90;;;;;;;15.93;84.51;100933.70;1734957;80;21696;-66
2021/08/23 04:59:35;;;;;;;16.70;12.77;;;;;;;16.02;83.08;100935.77;1737788;80;21803;-66
2021/08/23 05:02:02;;;;;;;15.30;11.43;;;;;;;16.08;82.64;100938.13;1738320;80;21775;-67
2021/08/23 05:04:29;;;;;;;15.03;11.77;;;;;;;16.16;81.52;100933.48;1735710;80;21811;-67
2021/08/23 05:06:55;;;;;;;15.57;11.73;;;;;;;16.25;80.63;100935.54;1736635;80;22258;-66
2021/08/23 05:09:22;;;;;;;16.53;11.97;;;;;;;16.32;79.79;100938.17;1728832;81;21786;-66
2021/08/23 05:11:49;;;;;;;15.13;11.40;;;;;;;16.37;78.58;100934.61;1728534;80;21686;-67
2021/08/23 05:14:16;;;;;;;13.10;10.83;;;;;;;16.48;77.70;100941.48;1726917;81;21808;-66
2021/08/23 05:16:44;;;;;;;13.80;11.03;;;;;;;16.48;77.70;100941.48;1735856;80;21563;-66
2021/08/23 05:19:11;;;;;;;14.27;11.20;;;;;;;16.53;76.74;100942.78;1742548;80;21799;-67
2021/08/23 05:21:38;;;;;;;14.67;11.53;;;;;;;16.59;76.41;100940.84;1731400;81;21842;-67
2021/08/23 05:24:05;;;;;;;16.97;12.27;;;;;;;16.64;76.23;100936.17;1717947;80;21013;-67
2021/08/23 05:26:32;;;;;;;13.97;11.40;;;;;;;16.75;76.40;100932.03;1731909;80;21157;-67
2021/08/23 05:28:59;;;;;;;14.00;10.60;;;;;;;16.88;76.38;100930.00;1731803;80;21109;-67
2021/08/23 05:31:25;;;;;;;15.03;12.00;;;;;;;17.02;75.07;100928.73;1736616;80;22145;-67
2021/08/23 05:33:52;;;;;;;16.73;11.10;;;;;;;17.04;73.69;100925.98;1738571;81;21113;-67
2021/08/23 05:36:19;;;;;;;16.00;11.67;;;;;;;17.08;73.62;100932.42;1714276;82;21615;-66
2021/08/23 05:38:46;;;;;;;17.30;11.57;;;;;;;17.14;73.41;100925.58;1736529;80;21127;-66
2021/08/23 05:41:13;;;;;;;16.07;11.50;;;;;;;17.20;73.33;100932.52;1734968;81;21048;-66
2021/08/23 05:43:40;;;;;;;15.60;11.37;;;;;;;17.30;73.61;100921.56;1733534;80;21498;-66
2021/08/23 05:46:06;;;;;;;13.20;10.70;;;;;;;17.46;73.45;100930.25;1733593;80;21070;-67
2021/08/23 05:48:33;;;;;;;13.17;11.03;;;;;;;17.59;72.93;100926.24;1737083;80;21045;-67
2021/08/23 05:51:01;;;;;;;16.07;11.40;;;;;;;17.73;72.71;100923.58;1737766;81;21059;-68
2021/08/23 05:53:28;;;;;;;13.60;10.53;;;;;;;17.89;72.38;100924.16;1735463;82;21029;-68
2021/08/23 05:55:56;;;;;;;14.53;11.43;;;;;;;18.01;71.40;100923.14;1717228;80;21147;-68
2021/08/23 05:58:22;;;;;;;14.77;10.70;;;;;;;18.10;70.53;100925.14;1728345;80;21019;-68
2021/08/23 06:00:49;;;;;;;14.03;10.63;;;;;;;18.19;69.61;100928.77;1740414;80;21091;-68
2021/08/23 06:03:15;;;;;;;13.00;10.60;;;;;;;18.24;69.29;100925.42;1719461;82;21052;-68
2021/08/23 06:05:42;;;;;;;13.57;9.67;;;;;;;18.36;69.34;100928.17;1719714;81;21083;-68
2021/08/23 06:08:09;;;;;;;11.07;8.70;;;;;;;18.49;69.15;100921.44;1739000;80;21493;-66
2021/08/23 06:10:37;;;;;;;12.10;9.60;;;;;;;18.64;68.66;100928.42;1738606;80;20941;-68
2021/08/23 06:13:04;;;;;;;10.97;9.17;;;;;;;18.72;68.37;100925.05;1728653;80;21021;-68
2021/08/23 06:15:31;;;;;;;13.13;9.23;;;;;;;18.80;67.70;100928.95;1750277;81;21817;-67
2021/08/23 06:17:58;;;;;;;12.97;9.50;;;;;;;18.91;67.09;100926.81;1736571;80;21584;-67
2021/08/23 06:20:24;;;;;;;13.03;9.27;;;;;;;19.06;66.78;100926.49;1730505;81;22299;-68
2021/08/23 06:22:51;;;;;;;11.33;9.00;;;;;;;19.22;66.28;100925.60;1737392;80;21100;-68
2021/08/23 06:25:19;;;;;;;11.20;9.00;;;;;;;19.38;65.81;100928.73;1711366;80;21064;-68
2021/08/23 06:27:46;;;;;;;10.47;8.40;;;;;;;19.52;65.05;100920.57;1721178;80;21456;-68
2021/08/23 06:30:13;;;;;;;11.63;8.03;;;;;;;19.62;64.64;100923.82;1741933;80;21149;-67
2021/08/23 06:32:41;;;;;;;11.03;8.60;;;;;;;19.77;63.79;100923.22;1738678;80;21790;-67
2021/08/23 06:35:09;;;;;;;10.20;7.87;;;;;;;19.87;62.58;100919.72;1731914;82;21080;-68
2021/08/23 06:37:36;;;;;;;10.83;7.80;;;;;;;19.95;62.14;100911.37;1719825;80;21718;-67
2021/08/23 06:40:08;;;;;;;14.57;8.80;;;;;;;20.08;61.89;100911.04;1736188;80;21080;-68
2021/08/23 06:42:37;;;;;;;12.88;8.20;;;;;;;20.23;62.38;100911.96;1732789;80;21123;-68
2021/08/23 06:45:05;;;;;;;11.90;8.87;;;;;;;20.34;61.89;100906.52;1727639;81;21193;-67
2021/08/23 06:47:35;;;;;;;10.70;9.03;;;;;;;20.45;61.98;100898.09;1732506;80;21095;-67
2021/08/23 06:50:01;;;;;;;11.20;8.77;;;;;;;20.58;61.53;100894.48;1739390;80;20986;-67
2021/08/23 06:52:28;;;;;;;11.67;8.60;;;;;;;20.71;61.75;100894.91;1690588;82;21017;-67
2021/08/23 06:54:57;;;;;;;11.27;8.17;;;;;;;20.85;61.99;100902.91;1667629;83;21091;-67
2021/08/23 06:57:24;;;;;;;11.00;8.80;;;;;;;20.96;61.10;100901.50;1656113;85;22221;-66
2021/08/23 06:59:51;;;;;;;10.73;7.83;;;;;;;21.05;60.85;100905.55;1675305;83;21119;-68
2021/08/23 07:02:17;;;;;;;11.27;9.03;;;;;;;21.15;60.41;100901.16;1693710;82;21076;-67
2021/08/23 07:04:49;;;;;;;10.40;8.80;;;;;;;21.23;60.21;100901.73;1677134;83;21670;-67
2021/08/23 07:07:12;;;;;;;10.50;7.93;;;;;;;21.33;60.19;100895.17;1687859;82;21072;-67
2021/08/23 07:09:39;;;;;;;10.90;8.47;;;;;;;21.42;59.31;100901.44;1689668;82;21361;-67
2021/08/23 07:12:08;;;;;;;10.37;8.13;;;;;;;21.55;59.54;100899.63;1677181;84;21744;-67
2021/08/23 07:14:36;;;;;;;10.10;8.30;;;;;;;21.68;59.26;100901.37;1686621;82;20986;-67
2021/08/23 07:17:05;;;;;;;11.13;8.97;;;;;;;21.83;59.19;100905.50;1669364;84;21030;-67
2021/08/23 07:19:34;;;;;;;10.70;8.10;;;;;;;21.93;58.79;100902.43;1699048;82;21141;-67
2021/08/23 07:22:01;;;;;;;12.07;9.00;;;;;;;22.05;58.65;100892.81;1675752;84;21141;-67
2021/08/23 07:24:28;;;;;;;9.77;7.90;;;;;;;22.19;57.98;100899.64;1673147;84;21136;-67
2021/08/23 07:26:55;;;;;;;10.33;7.93;;;;;;;22.34;57.32;100897.48;1672262;83;21234;-67
2021/08/23 07:29:24;;;;;;;9.60;7.53;;;;;;;22.44;57.70;100899.83;1666355;83;21110;-67
2021/08/23 07:31:51;;;;;;;9.10;7.33;;;;;;;22.59;56.92;100896.55;1674685;83;21152;-68
2021/08/23 07:34:17;;;;;;;7.33;5.87;;;;;;;22.75;56.33;100893.26;1665873;83;21164;-67
2021/08/23 07:36:43;;;;;;;6.80;5.37;;;;;;;22.88;54.51;100894.36;1675313;84;21054;-67
2021/08/23 07:39:13;;;;;;;8.07;6.00;;;;;;;22.96;52.84;100898.16;1677794;83;21099;-67
2021/08/23 07:41:40;;;;;;;10.97;6.33;;;;;;;22.99;52.46;100900.23;1668830;84;21043;-67
2021/08/23 07:44:07;;;;;;;7.33;5.57;;;;;;;23.06;52.65;100903.20;1673289;83;21178;-67
2021/08/23 07:46:34;;;;;;;7.50;6.07;;;;;;;23.22;52.38;100905.34;1676090;84;21521;-67
2021/08/23 07:49:02;;;;;;;8.87;6.40;;;;;;;23.34;52.03;100908.13;1676724;83;21071;-69
2021/08/23 07:51:29;;;;;;;7.63;6.50;;;;;;;23.43;51.89;100908.03;1673060;85;21526;-68
2021/08/23 07:53:56;;;;;;;7.83;6.50;;;;;;;23.51;51.30;100903.86;1672420;83;21083;-67
2021/08/23 07:56:23;;;;;;;9.13;6.80;;;;;;;23.58;50.19;100903.31;1666366;83;21071;-66
2021/08/23 07:58:50;;;;;;;12.60;7.17;;;;;;;23.55;50.25;100912.95;1676872;83;21641;-67
2021/08/23 08:01:17;;;;;;;8.67;6.60;;;;;;;23.52;50.40;100919.08;1662317;84;21142;-67
2021/08/23 08:03:43;;;;;;;7.33;5.90;;;;;;;23.60;49.88;100916.06;1675346;84;21057;-67
2021/08/23 08:06:10;;;;;;;9.60;6.13;;;;;;;23.73;49.86;100913.62;1668544;83;21086;-67
2021/08/23 08:08:36;;;;;;;7.97;6.00;;;;;;;23.87;49.45;100919.56;1671193;83;21791;-67
2021/08/23 08:11:03;;;;;;;7.10;5.80;;;;;;;24.02;49.05;100914.03;1672187;83;21093;-67
2021/08/23 08:13:30;;;;;;;7.23;5.27;;;;;;;24.13;48.00;100916.31;1672955;83;21491;-67
2021/08/23 08:15:57;;;;;;;7.07;5.20;;;;;;;24.20;47.52;100909.71;1675824;83;21125;-67
2021/08/23 08:18:24;;;;;;;6.50;4.90;;;;;;;24.31;45.98;100904.81;1735412;80;21085;-67
2021/08/23 08:20:50;;;;;;;7.97;4.77;;;;;;;24.41;45.99;100898.13;1730814;80;21091;-67
2021/08/23 08:23:17;;;;;;;6.10;4.67;;;;;;;24.56;45.02;100900.75;1733947;80;21303;-67
2021/08/23 08:25:44;;;;;;;7.23;5.23;;;;;;;24.70;45.04;100909.36;1722736;80;21056;-67
2021/08/23 08:28:11;;;;;;;6.70;4.80;;;;;;;24.83;44.60;100912.88;1728102;81;21614;-67
2021/08/23 08:30:40;;;;;;;5.67;4.67;;;;;;;24.93;45.22;100908.29;1720435;80;21082;-67
2021/08/23 08:33:06;;;;;;;8.03;5.10;;;;;;;25.02;44.44;100908.95;1735560;80;21120;-67
2021/08/23 08:35:33;;;;;;;7.07;4.73;;;;;;;25.07;43.75;100912.58;1725704;80;21760;-67
2021/08/23 08:38:00;;;;;;;5.33;4.40;;;;;;;25.11;43.86;100912.92;1724294;80;21115;-67
2021/08/23 08:40:27;;;;;;;8.23;5.07;;;;;;;25.13;43.14;100919.42;1737904;80;21060;-67
2021/08/23 08:42:54;;;;;;;6.37;4.60;;;;;;;25.04;42.55;100918.16;1739014;80;21493;-67
2021/08/23 08:45:26;;;;;;;6.17;4.73;;;;;;;24.96;42.73;100922.63;1733704;80;21079;-67
2021/08/23 08:47:52;;;;;;;6.23;4.73;;;;;;;24.90;42.99;100919.12;1734584;80;21547;-67
2021/08/23 08:50:19;;;;;;;5.77;4.47;;;;;;;24.84;42.87;100923.23;1738904;80;21100;-67
2021/08/23 08:52:46;;;;;;;5.87;4.80;;;;;;;24.73;43.19;100916.08;1726201;80;21754;-66
2021/08/23 08:55:14;;;;;;;8.17;4.60;;;;;;;24.66;42.72;100918.60;1713616;80;21052;-67
2021/08/23 08:57:41;;;;;;;6.37;4.10;;;;;;;24.51;42.68;100915.44;1721496;81;21654;-67
2021/08/23 09:00:09;;;;;;;7.43;4.50;;;;;;;24.39;43.06;100920.87;1731632;80;21682;-67
2021/08/23 09:02:36;;;;;;;5.37;4.20;;;;;;;24.32;43.38;100917.91;1729808;80;21566;-67
2021/08/23 09:05:07;;;;;;;6.33;4.77;;;;;;;24.29;43.81;100918.02;1734050;81;21527;-68
2021/08/23 09:07:40;;;;;;;6.50;4.37;;;;;;;24.27;43.51;100916.19;1735393;80;21047;-68
2021/08/23 09:10:24;;;;;;;6.53;4.30;;;;;;;24.27;43.44;100920.86;1729450;80;21551;-67
2021/08/23 09:13:12;;;;;;;5.93;4.33;;;;;;;24.34;43.58;100916.41;1720713;80;21124;-66
2021/08/23 09:15:53;;;;;;;5.37;4.10;;;;;;;24.50;43.00;100908.36;1737357;80;21189;-67
2021/08/23 09:18:23;;;;;;;4.87;3.77;;;;;;;24.82;42.81;100903.67;1722866;82;21079;-68
2021/08/23 09:21:05;;;;;;;6.40;3.70;;;;;;;25.11;41.60;100897.10;1734283;80;21048;-66
2021/08/23 09:23:40;;;;;;;;;;;;;;;25.25;40.61;100902.98;1725414;81;21578;-67
2021/08/23 09:26:13;;;;;;;5.03;3.80;;;;;;;25.45;40.13;100884.78;1718811;80;21515;-67
2021/08/23 09:28:41;;;;;;;6.17;3.60;;;;;;;25.54;38.69;100888.16;1721813;81;21460;-67
2021/08/23 09:31:10;;;;;;;6.37;3.93;;;;;;;25.57;39.04;100893.48;1727029;81;21448;-66
2021/08/23 09:33:43;;;;;;;5.00;3.40;;;;;;;25.63;37.25;100887.98;1733539;80;21964;-67
2021/08/23 09:36:10;;;;;;;4.20;3.33;;;;;;;25.65;37.68;100880.23;1739206;81;21654;-68
2021/08/23 09:38:40;;;;;;;6.73;3.50;;;;;;;25.68;37.71;100882.27;1734884;80;21938;-68
2021/08/23 09:41:06;;;;;;;4.80;3.30;;;;;;;25.75;37.75;100879.70;1734855;80;21295;-67
2021/08/23 09:43:35;;;;;;;5.37;3.70;;;;;;;25.77;37.31;100877.42;1745800;80;21106;-68
2021/08/23 09:46:11;;;;;;;4.87;3.63;;;;;;;25.83;37.10;100884.25;1749911;80;21402;-67
2021/08/23 09:48:52;;;;;;;6.07;3.97;;;;;;;25.87;37.92;100878.87;1717980;80;21126;-67
2021/08/23 09:51:27;;;;;;;5.67;3.97;;;;;;;25.92;37.22;100885.43;1737334;80;21134;-67
2021/08/23 09:54:14;;;;;;;5.40;3.50;;;;;;;25.88;38.23;100889.45;1738661;80;21573;-66
2021/08/23 09:56:47;;;;;;;4.80;3.67;;;;;;;25.95;38.19;100884.15;1735651;82;21708;-66
2021/08/23 09:59:23;;;;;;;4.73;3.53;;;;;;;26.09;37.09;100877.43;1733232;80;21614;-67
2021/08/23 10:01:57;;;;;;;4.93;3.50;;;;;;;26.18;37.19;100874.73;1739187;80;21126;-68
2021/08/23 10:04:24;;;;;;;5.57;3.70;;;;;;;26.25;36.30;100876.84;1723709;80;21053;-66
2021/08/23 10:06:52;;;;;;;6.57;3.70;;;;;;;26.20;37.21;100873.02;1720712;81;21595;-66
2021/08/23 10:09:25;;;;;;;25.27;5.70;;;;;;;26.19;37.05;100870.86;1736271;80;21103;-67
2021/08/23 10:11:55;;;;;;;5.27;3.87;;;;;;;26.10;37.31;100874.36;1736993;80;21080;-66
2021/08/23 10:14:22;;;;;;;5.03;3.70;;;;;;;26.12;36.81;100877.52;1719331;82;21054;-67
2021/08/23 10:16:49;;;;;;;6.10;3.60;;;;;;;26.23;36.99;100870.16;1725229;82;21926;-67
2021/08/23 10:19:15;;;;;;;4.80;3.47;;;;;;;26.40;36.74;100863.70;1727431;80;21670;-67
2021/08/23 10:21:45;;;;;;;3.97;3.10;;;;;;;26.62;36.32;100858.16;1724927;80;21097;-67
2021/08/23 10:24:16;;;;;;;3.90;3.13;;;;;;;26.81;35.12;100864.80;1742336;80;21670;-67
2021/08/23 10:26:44;;;;;;;4.25;3.20;;;;;;;26.85;35.46;100860.17;1739931;82;21073;-67
2021/08/23 10:29:13;;;;;;;3.93;2.90;;;;;;;26.86;35.55;100861.78;1721398;80;21072;-67
2021/08/23 10:31:43;;;;;;;4.13;2.93;;;;;;;26.82;35.02;100850.75;1729712;80;21087;-67
2021/08/23 10:34:19;;;;;;;5.50;3.17;;;;;;;26.81;34.10;100849.14;1729398;80;21041;-66
2021/08/23 10:36:48;;;;;;;4.40;3.40;;;;;;;26.83;33.44;100848.80;1736007;81;21058;-67
2021/08/23 10:39:24;;;;;;;4.33;3.20;;;;;;;26.83;34.31;100850.95;1736973;81;21072;-69
2021/08/23 10:41:54;;;;;;;4.56;3.20;;;;;;;26.82;33.89;100849.38;1621141;80;10001291;-70
2021/08/23 10:44:33;;;;;;;4.77;3.30;;;;;;;26.78;34.83;100845.75;1615718;80;9999644;-69
2021/08/23 10:47:09;;;;;;;6.00;3.40;;;;;;;26.75;34.33;100841.56;1734337;80;21171;-70
2021/08/23 10:49:47;;;;;;;4.00;3.00;;;;;;;26.79;34.58;100848.73;1733828;80;21084;-70
2021/08/23 10:52:16;;;;;;;5.17;3.13;;;;;;;26.85;34.09;100854.14;1732106;80;21159;-71
2021/08/23 10:54:51;;;;;;;4.37;2.90;;;;;;;26.85;33.47;100853.33;1735326;80;21093;-69
2021/08/23 10:57:20;;;;;;;5.80;3.50;;;;;;;26.75;33.60;100851.16;1733143;80;21733;-71
2021/08/23 10:59:56;;;;;;;4.13;2.97;;;;;;;26.63;32.87;100854.26;1736618;80;21334;-71
2021/08/23 11:02:33;;;;;;;6.57;3.50;;;;;;;26.42;33.18;100849.09;1730168;80;21754;-71
2021/08/23 11:05:07;;;;;;;4.30;3.30;;;;;;;26.26;34.62;100855.73;1736062;80;21106;-70
2021/08/23 11:07:32;;;;;;;4.83;3.60;;;;;;;26.14;35.06;100853.33;1733791;82;21084;-70
2021/08/23 11:10:13;;;;;;;4.90;3.73;;;;;;;26.10;35.69;100851.66;1735537;81;21006;-72
2021/08/23 11:12:45;;;;;;;5.70;3.60;;;;;;;26.07;35.92;100845.53;1732989;80;21013;-69
2021/08/23 11:15:17;;;;;;;4.47;3.60;;;;;;;26.05;35.71;100851.34;1732739;80;21052;-68
2021/08/23 11:17:49;;;;;;;4.67;3.83;;;;;;;25.96;35.82;100847.98;1670563;83;21128;-67
2021/08/23 11:20:33;;;;;;;5.20;3.57;;;;;;;25.98;36.09;100844.91;1696046;82;21135;-70
2021/08/23 11:23:02;;;;;;;6.27;3.53;;;;;;;26.06;36.49;100837.90;1694928;82;21544;-69